createdAt,value
2018-02-18T00:02:01.911Z,5.18
2018-02-18T00:04:29.473Z,5.12
2018-02-18T00:06:57.287Z,5.09
2018-02-18T00:09:24.857Z,5.06
2018-02-18T00:11:52.523Z,4.94
2018-02-18T00:17:21.756Z,4.91
2018-02-18T00:19:49.594Z,4.91
2018-02-18T00:22:17.150Z,4.83
2018-02-18T00:24:44.710Z,4.78
2018-02-18T00:27:12.434Z,4.73
2018-02-18T00:29:40.056Z,4.68
2018-02-18T00:32:07.618Z,4.66
2018-02-18T00:34:35.190Z,4.65
2018-02-18T00:37:02.843Z,4.64
2018-02-18T00:39:30.401Z,4.69
2018-02-18T00:41:57.981Z,4.68
2018-02-18T00:44:25.541Z,4.65
2018-02-18T00:46:53.366Z,4.63
2018-02-18T00:49:20.989Z,4.64
2018-02-18T00:51:48.589Z,4.58
2018-02-18T00:54:16.418Z,4.63
2018-02-18T00:56:44.037Z,4.69
2018-02-18T00:59:11.603Z,4.71
2018-02-18T01:01:39.173Z,4.71
2018-02-18T01:04:06.732Z,4.73
2018-02-18T01:06:34.495Z,4.70
2018-02-18T01:09:02.213Z,4.83
2018-02-18T01:11:30.069Z,4.83
2018-02-18T01:13:57.626Z,4.87
2018-02-18T01:16:25.187Z,4.86
2018-02-18T01:18:52.923Z,4.85
2018-02-18T01:21:20.746Z,4.82
2018-02-18T01:23:48.560Z,4.75
2018-02-18T01:26:16.250Z,4.73
2018-02-18T01:28:43.872Z,4.82
2018-02-18T01:31:11.427Z,4.86
2018-02-18T01:33:39.147Z,4.88
2018-02-18T01:36:06.718Z,5.00
2018-02-18T01:38:34.431Z,4.97
2018-02-18T01:41:02.110Z,4.99
2018-02-18T01:43:29.672Z,5.02
2018-02-18T01:45:57.296Z,5.00
2018-02-18T01:48:24.866Z,5.03
2018-02-18T01:50:52.538Z,5.05
2018-02-18T01:53:20.107Z,5.07
2018-02-18T01:55:47.662Z,5.03
2018-02-18T01:58:15.231Z,5.06
2018-02-18T02:00:42.786Z,5.05
2018-02-18T02:03:10.620Z,4.99
2018-02-18T02:05:38.335Z,5.02
2018-02-18T02:08:06.051Z,5.00
2018-02-18T02:10:33.631Z,4.88
2018-02-18T02:13:01.210Z,4.88
2018-02-18T02:15:29.038Z,4.81
2018-02-18T02:17:56.596Z,4.70
2018-02-18T02:20:24.374Z,4.59
2018-02-18T02:22:51.930Z,4.56
2018-02-18T02:25:19.596Z,4.58
2018-02-18T02:27:47.306Z,4.55
2018-02-18T02:30:15.026Z,4.52
2018-02-18T02:32:42.864Z,4.50
2018-02-18T02:35:10.422Z,4.47
2018-02-18T02:37:38.065Z,4.41
2018-02-18T02:40:05.705Z,4.42
2018-02-18T02:42:33.404Z,4.29
2018-02-18T02:45:00.974Z,4.30
2018-02-18T02:47:28.772Z,4.29
2018-02-18T02:49:56.396Z,4.27
2018-02-18T02:52:24.110Z,4.22
2018-02-18T02:54:51.671Z,4.20
2018-02-18T02:57:19.238Z,4.17
2018-02-18T02:59:46.962Z,4.11
2018-02-18T03:02:14.781Z,4.10
2018-02-18T03:04:42.499Z,4.11
2018-02-18T03:07:10.108Z,4.08
2018-02-18T03:09:37.842Z,4.04
2018-02-18T03:12:05.403Z,4.01
2018-02-18T03:14:33.242Z,3.97
2018-02-18T03:17:00.799Z,4.02
2018-02-18T03:19:28.343Z,4.07
2018-02-18T03:21:55.911Z,4.04
2018-02-18T03:24:23.557Z,4.03
2018-02-18T03:26:51.182Z,3.98
2018-02-18T03:29:18.755Z,3.93
2018-02-18T03:31:46.314Z,3.93
2018-02-18T03:34:13.878Z,3.89
2018-02-18T03:36:41.467Z,3.97
2018-02-18T03:39:09.042Z,3.93
2018-02-18T03:41:36.601Z,3.92
2018-02-18T03:44:04.234Z,3.92
2018-02-18T03:46:31.790Z,3.91
2018-02-18T03:48:59.347Z,3.94
2018-02-18T03:51:27.140Z,4.00
2018-02-18T03:53:54.957Z,4.04
2018-02-18T03:56:22.677Z,4.10
2018-02-18T03:58:50.284Z,4.23
2018-02-18T04:01:17.905Z,4.37
2018-02-18T04:03:45.629Z,4.44
2018-02-18T04:06:13.350Z,4.56
2018-02-18T04:08:41.166Z,4.58
2018-02-18T04:11:08.722Z,4.63
2018-02-18T04:13:36.302Z,4.61
2018-02-18T04:16:03.874Z,4.58
2018-02-18T04:18:31.487Z,4.55
2018-02-18T04:20:59.049Z,4.52
2018-02-18T04:23:26.786Z,4.51
2018-02-18T04:25:54.593Z,4.49
2018-02-18T04:28:22.152Z,4.49
2018-02-18T04:30:49.717Z,4.51
2018-02-18T04:33:17.274Z,4.45
2018-02-18T04:35:45.064Z,4.38
2018-02-18T04:38:12.625Z,4.44
2018-02-18T04:40:40.279Z,4.48
2018-02-18T04:43:07.850Z,4.49
2018-02-18T04:45:35.421Z,4.49
2018-02-18T04:48:03.153Z,4.44
2018-02-18T04:50:30.710Z,4.39
2018-02-18T04:52:58.536Z,4.40
2018-02-18T04:55:26.096Z,4.42
2018-02-18T04:57:53.824Z,4.46
2018-02-18T05:00:21.398Z,4.49
2018-02-18T05:02:48.941Z,4.57
2018-02-18T05:05:16.500Z,4.63
2018-02-18T05:07:44.295Z,4.65
2018-02-18T05:10:12.114Z,4.72
2018-02-18T05:12:39.832Z,4.78
2018-02-18T05:15:07.391Z,4.81
2018-02-18T05:17:34.962Z,4.84
2018-02-18T05:20:02.574Z,4.92
2018-02-18T05:22:30.182Z,4.91
2018-02-18T05:24:57.737Z,4.96
2018-02-18T05:27:25.358Z,5.01
2018-02-18T05:29:52.922Z,5.01
2018-02-18T05:32:20.485Z,5.05
2018-02-18T05:34:48.050Z,5.07
2018-02-18T05:37:15.618Z,5.09
2018-02-18T05:39:43.431Z,5.07
2018-02-18T05:42:10.986Z,5.06
2018-02-18T05:44:38.607Z,5.04
2018-02-18T05:47:06.167Z,5.10
2018-02-18T05:49:33.888Z,5.08
2018-02-18T05:52:01.458Z,5.06
2018-02-18T05:54:29.147Z,5.09
2018-02-18T05:56:56.714Z,5.17
2018-02-18T05:59:24.452Z,5.24
2018-02-18T06:01:52.290Z,5.38
2018-02-18T06:04:19.858Z,5.59
2018-02-18T06:06:47.443Z,5.82
2018-02-18T06:09:15.006Z,6.00
2018-02-18T06:11:42.557Z,6.13
2018-02-18T06:14:10.127Z,6.26
2018-02-18T06:16:37.686Z,6.27
2018-02-18T06:19:05.309Z,6.32
2018-02-18T06:21:32.866Z,6.38
2018-02-18T06:24:00.654Z,6.47
2018-02-18T06:26:28.262Z,6.43
2018-02-18T06:28:55.880Z,6.57
2018-02-18T06:31:23.709Z,6.62
2018-02-18T06:33:51.267Z,6.50
2018-02-18T06:36:18.910Z,6.43
2018-02-18T06:38:46.531Z,6.48
2018-02-18T06:41:14.094Z,6.45
2018-02-18T06:43:41.663Z,6.46
2018-02-18T06:46:09.217Z,6.68
2018-02-18T06:48:36.764Z,6.92
2018-02-18T06:51:04.319Z,7.13
2018-02-18T06:53:32.167Z,7.41
2018-02-18T06:55:59.798Z,7.70
2018-02-18T06:58:27.603Z,7.90
2018-02-18T07:00:55.186Z,8.05
2018-02-18T07:03:22.829Z,8.07
2018-02-18T07:05:50.459Z,8.12
2018-02-18T07:08:18.014Z,8.06
2018-02-18T07:10:45.577Z,8.49
2018-02-18T07:13:13.267Z,9.43
2018-02-18T07:15:40.838Z,10.78
2018-02-18T07:18:08.645Z,12.43
2018-02-18T07:20:36.363Z,13.59
2018-02-18T07:23:03.922Z,14.77
2018-02-18T07:25:31.494Z,15.40
2018-02-18T07:27:59.058Z,15.94
2018-02-18T07:30:26.625Z,17.21
2018-02-18T07:32:54.359Z,17.93
2018-02-18T07:35:22.063Z,18.35
2018-02-18T07:37:49.627Z,18.41
2018-02-18T07:40:17.406Z,18.68
2018-02-18T07:42:44.983Z,18.89
2018-02-18T07:45:12.742Z,18.69
2018-02-18T07:47:40.319Z,18.74
2018-02-18T07:50:07.990Z,19.18
2018-02-18T07:52:35.608Z,19.00
2018-02-18T07:55:03.177Z,19.35
2018-02-18T07:57:30.751Z,19.32
2018-02-18T07:59:58.318Z,19.70
2018-02-18T08:02:25.881Z,19.65
2018-02-18T08:04:53.455Z,19.62
2018-02-18T08:07:21.020Z,19.61
2018-02-18T08:09:48.821Z,19.27
2018-02-18T08:12:16.381Z,18.60
2018-02-18T08:14:43.999Z,18.19
2018-02-18T08:17:11.775Z,18.08
2018-02-18T08:19:39.344Z,17.33
2018-02-18T08:22:06.918Z,15.96
2018-02-18T08:24:34.482Z,14.62
2018-02-18T08:27:02.121Z,13.69
2018-02-18T08:29:29.678Z,12.74
2018-02-18T08:31:57.242Z,12.21
2018-02-18T08:34:24.818Z,12.42
2018-02-18T08:36:52.386Z,13.37
2018-02-18T08:39:19.954Z,13.99
2018-02-18T08:41:47.753Z,14.59
2018-02-18T08:44:15.457Z,14.90
2018-02-18T08:46:43.074Z,15.31
2018-02-18T08:49:10.651Z,14.74
2018-02-18T08:51:38.239Z,14.38
2018-02-18T08:54:05.818Z,13.97
2018-02-18T08:56:33.553Z,13.49
2018-02-18T08:59:01.279Z,13.41
2018-02-18T09:01:29.074Z,13.44
2018-02-18T09:03:56.786Z,13.66
2018-02-18T09:06:24.342Z,14.13
2018-02-18T09:08:51.930Z,14.46
2018-02-18T09:11:19.550Z,14.79
2018-02-18T09:13:47.122Z,15.06
2018-02-18T09:16:14.704Z,15.25
2018-02-18T09:18:42.286Z,14.38
2018-02-18T09:21:09.871Z,13.30
2018-02-18T09:23:37.538Z,12.90
2018-02-18T09:26:05.131Z,12.50
2018-02-18T09:28:32.711Z,12.28
2018-02-18T09:31:00.512Z,11.74
2018-02-18T09:33:28.082Z,11.42
2018-02-18T09:35:55.647Z,11.34
2018-02-18T09:38:23.218Z,11.15
2018-02-18T09:40:50.798Z,10.95
2018-02-18T09:43:18.601Z,10.99
2018-02-18T09:45:46.178Z,11.05
2018-02-18T09:48:13.910Z,11.21
2018-02-18T09:50:41.526Z,11.19
2018-02-18T09:53:09.274Z,11.19
2018-02-18T09:55:37.095Z,11.30
2018-02-18T09:58:04.914Z,11.50
2018-02-18T10:00:32.470Z,11.80
2018-02-18T10:03:00.046Z,12.05
2018-02-18T10:05:27.610Z,12.12
2018-02-18T10:07:55.239Z,12.12
2018-02-18T10:10:22.815Z,12.12
2018-02-18T10:12:50.429Z,12.05
2018-02-18T10:15:17.990Z,12.14
2018-02-18T10:17:45.558Z,12.15
2018-02-18T10:20:13.164Z,12.00
2018-02-18T10:22:41.033Z,11.74
2018-02-18T10:25:08.839Z,11.46
2018-02-18T10:27:36.518Z,11.52
2018-02-18T10:30:04.120Z,11.85
2018-02-18T10:32:31.698Z,12.23
2018-02-18T10:34:59.395Z,12.39
2018-02-18T10:37:26.971Z,12.51
2018-02-18T10:39:54.816Z,12.43
2018-02-18T10:42:22.737Z,12.48
2018-02-18T10:44:50.555Z,12.54
2018-02-18T10:47:18.127Z,12.61
2018-02-18T10:49:45.891Z,12.64
2018-02-18T10:52:13.708Z,12.58
2018-02-18T10:54:41.288Z,12.52
2018-02-18T10:57:08.849Z,12.13
2018-02-18T10:59:36.662Z,12.04
2018-02-18T11:02:04.381Z,11.85
2018-02-18T11:04:32.200Z,11.61
2018-02-18T11:06:59.797Z,11.66
2018-02-18T11:09:27.367Z,11.64
2018-02-18T11:11:54.943Z,11.55
2018-02-18T11:14:22.515Z,11.90
2018-02-18T11:16:50.250Z,12.07
2018-02-18T11:19:17.969Z,12.09
2018-02-18T11:21:45.545Z,12.43
2018-02-18T11:24:13.343Z,12.92
2018-02-18T11:26:41.161Z,13.08
2018-02-18T11:29:08.731Z,13.37
2018-02-18T11:31:36.295Z,13.63
2018-02-18T11:34:03.928Z,13.80
2018-02-18T11:36:31.502Z,13.54
2018-02-18T11:38:59.251Z,13.31
2018-02-18T11:41:26.843Z,13.32
2018-02-18T11:43:54.405Z,13.75
2018-02-18T11:46:21.984Z,14.00
2018-02-18T11:48:49.614Z,13.87
2018-02-18T11:51:17.256Z,13.96
2018-02-18T11:53:44.842Z,14.24
2018-02-18T11:56:12.398Z,14.80
2018-02-18T11:58:40.085Z,15.49
2018-02-18T12:01:07.912Z,15.65
2018-02-18T12:03:35.490Z,15.43
2018-02-18T12:06:03.253Z,15.90
2018-02-18T12:08:30.870Z,16.07
2018-02-18T12:10:58.684Z,16.62
2018-02-18T12:13:26.246Z,17.19
2018-02-18T12:15:53.854Z,17.18
2018-02-18T12:18:21.418Z,17.58
2018-02-18T12:20:48.990Z,17.97
2018-02-18T12:23:16.563Z,17.93
2018-02-18T12:25:44.392Z,17.88
2018-02-18T12:28:11.958Z,18.00
2018-02-18T12:30:39.698Z,18.35
2018-02-18T12:33:07.413Z,18.47
2018-02-18T12:35:35.128Z,18.71
2018-02-18T12:38:02.845Z,18.61
2018-02-18T12:40:30.410Z,19.03
2018-02-18T12:42:58.070Z,18.44
2018-02-18T12:45:25.630Z,17.71
2018-02-18T12:47:53.231Z,17.28
2018-02-18T12:50:20.783Z,17.29
2018-02-18T12:52:48.342Z,17.03
2018-02-18T12:55:15.913Z,17.13
2018-02-18T12:57:43.653Z,17.23
2018-02-18T13:00:11.282Z,17.48
2018-02-18T13:02:39.065Z,17.22
2018-02-18T13:05:06.879Z,16.50
2018-02-18T13:07:34.468Z,15.69
2018-02-18T13:10:02.035Z,15.22
2018-02-18T13:12:29.620Z,14.69
2018-02-18T13:14:57.351Z,14.51
2018-02-18T13:17:25.007Z,14.36
2018-02-18T13:19:52.566Z,14.06
2018-02-18T13:22:20.126Z,13.73
2018-02-18T13:24:47.924Z,13.34
2018-02-18T13:27:15.491Z,13.03
2018-02-18T13:29:43.260Z,12.75
2018-02-18T13:32:10.828Z,12.73
2018-02-18T13:34:38.468Z,12.64
2018-02-18T13:37:06.020Z,12.46
2018-02-18T13:39:33.590Z,12.40
2018-02-18T13:42:01.351Z,12.57
2018-02-18T13:44:29.171Z,12.63
2018-02-18T13:46:56.790Z,12.66
2018-02-18T13:49:24.700Z,12.49
2018-02-18T13:51:52.523Z,12.30
2018-02-18T13:54:20.130Z,12.16
2018-02-18T13:56:47.675Z,11.88
2018-02-18T13:59:15.477Z,11.51
2018-02-18T14:01:43.064Z,11.15
2018-02-18T14:04:10.671Z,10.92
2018-02-18T14:06:38.425Z,10.84
2018-02-18T14:09:06.256Z,10.64
2018-02-18T14:11:34.068Z,10.59
2018-02-18T14:14:01.668Z,10.50
2018-02-18T14:16:29.505Z,10.51
2018-02-18T14:18:57.114Z,10.29
2018-02-18T14:21:24.832Z,10.23
2018-02-18T14:23:52.453Z,10.19
2018-02-18T14:26:20.077Z,10.15
2018-02-18T14:28:47.654Z,10.16
2018-02-18T14:31:15.321Z,10.18
2018-02-18T14:33:43.232Z,10.11
2018-02-18T14:36:10.963Z,9.89
2018-02-18T14:38:38.755Z,9.82
2018-02-18T14:41:06.490Z,9.87
2018-02-18T14:43:45.946Z,9.87
2018-02-18T14:46:25.470Z,9.79
2018-02-18T14:49:04.780Z,9.82
2018-02-18T14:51:44.079Z,9.79
2018-02-18T14:57:35.167Z,9.71
2018-02-18T15:00:02.981Z,9.56
2018-02-18T15:02:30.792Z,9.49
2018-02-18T15:04:58.427Z,9.49
2018-02-18T15:07:26.065Z,9.20
2018-02-18T15:09:53.847Z,9.17
2018-02-18T15:12:21.670Z,9.04
2018-02-18T15:14:49.306Z,8.94
2018-02-18T15:17:16.890Z,8.93
2018-02-18T15:19:44.455Z,8.92
2018-02-18T15:22:12.337Z,8.83
2018-02-18T15:24:40.158Z,8.77
2018-02-18T15:27:07.718Z,8.67
2018-02-18T15:29:35.298Z,8.64
2018-02-18T15:32:02.880Z,8.59
2018-02-18T15:34:30.445Z,8.48
2018-02-18T15:36:58.246Z,8.42
2018-02-18T15:39:26.063Z,8.36
2018-02-18T15:41:53.783Z,8.30
2018-02-18T15:44:21.602Z,8.19
2018-02-18T15:46:49.202Z,8.15
2018-02-18T15:49:16.928Z,8.05
2018-02-18T15:51:44.761Z,8.03
2018-02-18T15:54:12.363Z,7.95
2018-02-18T15:56:40.001Z,7.89
2018-02-18T15:59:07.568Z,7.86
2018-02-18T16:01:35.121Z,7.89
2018-02-18T16:04:02.695Z,7.83
2018-02-18T16:06:30.266Z,7.84
2018-02-18T16:08:57.842Z,7.77
2018-02-18T16:11:25.413Z,7.75
2018-02-18T16:13:53.034Z,7.68
2018-02-18T16:16:20.599Z,7.61
2018-02-18T16:18:48.351Z,7.55
2018-02-18T16:21:15.927Z,7.49
2018-02-18T16:23:43.646Z,7.50
2018-02-18T16:26:11.365Z,7.44
2018-02-18T16:28:38.934Z,7.33
2018-02-18T16:31:06.741Z,7.25
2018-02-18T16:33:34.459Z,7.13
2018-02-18T16:36:02.187Z,7.09
2018-02-18T16:38:29.996Z,7.00
2018-02-18T16:40:57.817Z,6.95
2018-02-18T16:43:25.398Z,6.95
2018-02-18T16:45:52.982Z,6.94
2018-02-18T16:48:20.595Z,6.89
2018-02-18T16:50:48.150Z,6.91
2018-02-18T16:53:15.709Z,6.89
2018-02-18T16:55:43.283Z,6.84
2018-02-18T16:58:10.877Z,6.80
2018-02-18T17:00:38.544Z,6.79
2018-02-18T17:03:06.280Z,6.79
2018-02-18T17:05:33.916Z,6.80
2018-02-18T17:08:01.495Z,6.79
2018-02-18T17:10:29.330Z,6.73
2018-02-18T17:12:57.034Z,6.74
2018-02-18T17:15:24.738Z,6.69
2018-02-18T17:17:52.310Z,6.61
2018-02-18T17:20:20.016Z,6.58
2018-02-18T17:22:47.649Z,6.61
2018-02-18T17:25:15.827Z,6.57
2018-02-18T17:27:43.390Z,6.62
2018-02-18T17:30:10.964Z,6.63
2018-02-18T17:32:38.677Z,6.62
2018-02-18T17:35:06.248Z,6.59
2018-02-18T17:37:33.834Z,6.56
2018-02-18T17:40:01.442Z,6.58
2018-02-18T17:42:29.026Z,6.54
2018-02-18T17:44:56.758Z,6.52
2018-02-18T17:47:24.602Z,6.47
2018-02-18T17:49:52.173Z,6.45
2018-02-18T17:52:19.760Z,6.48
2018-02-18T17:54:47.345Z,6.46
2018-02-18T17:57:15.176Z,6.53
2018-02-18T17:59:42.742Z,6.61
2018-02-18T18:02:10.306Z,6.71
2018-02-18T18:04:37.886Z,6.70
2018-02-18T18:07:05.606Z,6.69
2018-02-18T18:09:33.282Z,6.66
2018-02-18T18:12:00.871Z,6.68
2018-02-18T18:14:28.442Z,6.75
2018-02-18T18:16:56.011Z,6.78
2018-02-18T18:19:23.574Z,6.80
2018-02-18T18:21:51.456Z,6.77
2018-02-18T18:24:19.174Z,6.76
2018-02-18T18:26:47.002Z,6.70
2018-02-18T18:29:14.579Z,6.69
2018-02-18T18:31:42.174Z,6.63
2018-02-18T18:34:09.944Z,6.76
2018-02-18T18:36:37.532Z,6.72
2018-02-18T18:39:05.134Z,6.68
2018-02-18T18:41:32.713Z,6.71
2018-02-18T18:44:00.286Z,6.78
2018-02-18T18:46:27.906Z,6.77
2018-02-18T18:48:55.503Z,6.75
2018-02-18T18:51:23.160Z,6.67
2018-02-18T18:53:50.735Z,6.64
2018-02-18T18:56:18.299Z,6.62
2018-02-18T18:58:45.919Z,6.54
2018-02-18T19:01:13.742Z,6.52
2018-02-18T19:03:41.430Z,6.54
2018-02-18T19:06:09.179Z,6.52
2018-02-18T19:08:36.737Z,6.50
2018-02-18T19:11:04.354Z,6.48
2018-02-18T19:13:32.096Z,6.48
2018-02-18T19:15:59.812Z,6.54
2018-02-18T19:18:27.385Z,6.47
2018-02-18T19:20:55.186Z,6.46
2018-02-18T19:23:22.768Z,6.45
2018-02-18T19:25:50.622Z,6.42
2018-02-18T19:28:18.212Z,6.30
2018-02-18T19:30:45.871Z,6.32
2018-02-18T19:33:13.487Z,6.29
2018-02-18T19:35:41.207Z,6.28
2018-02-18T19:38:09.014Z,6.27
2018-02-18T19:40:36.594Z,6.25
2018-02-18T19:43:04.316Z,6.25
2018-02-18T19:45:31.891Z,6.27
2018-02-18T19:47:59.684Z,6.19
2018-02-18T19:50:27.312Z,6.10
2018-02-18T19:52:54.875Z,6.02
2018-02-18T19:55:22.522Z,6.04
2018-02-18T19:57:50.114Z,6.03
2018-02-18T20:00:17.697Z,6.12
2018-02-18T20:02:45.302Z,6.14
2018-02-18T20:05:13.153Z,6.10
2018-02-18T20:07:40.719Z,6.14
2018-02-18T20:10:08.546Z,6.06
2018-02-18T20:12:36.287Z,6.02
2018-02-18T20:15:04.185Z,6.04
2018-02-18T20:17:31.815Z,6.15
2018-02-18T20:19:59.516Z,6.14
2018-02-18T20:22:27.173Z,6.22
2018-02-18T20:24:54.976Z,6.08
2018-02-18T20:27:22.984Z,6.06
2018-02-18T20:29:50.676Z,6.03
2018-02-18T20:32:18.314Z,6.05
2018-02-18T20:34:45.893Z,6.03
2018-02-18T20:37:13.677Z,6.08
2018-02-18T20:39:41.468Z,6.14
2018-02-18T20:42:09.282Z,6.21
2018-02-18T20:44:37.152Z,6.20
2018-02-18T20:47:04.924Z,6.16
2018-02-18T20:49:32.489Z,6.22
2018-02-18T20:52:00.354Z,6.24
2018-02-18T20:54:27.998Z,6.22
2018-02-18T20:56:55.826Z,6.19
2018-02-18T20:59:23.411Z,6.20
2018-02-18T21:01:51.112Z,6.25
2018-02-18T21:04:18.735Z,6.26
2018-02-18T21:06:46.291Z,6.27
2018-02-18T21:09:14.087Z,6.23
2018-02-18T21:11:41.904Z,6.07
2018-02-18T21:14:09.466Z,6.10
2018-02-18T21:16:37.078Z,6.14
2018-02-18T21:19:04.654Z,6.18
2018-02-18T21:21:32.376Z,6.17
2018-02-18T21:23:59.951Z,6.18
2018-02-18T21:26:27.677Z,6.17
2018-02-18T21:28:55.302Z,6.23
2018-02-18T21:31:22.861Z,6.15
2018-02-18T21:33:50.649Z,6.14
2018-02-18T21:36:18.369Z,6.10
2018-02-18T21:38:46.202Z,6.05
2018-02-18T21:41:14.021Z,6.07
2018-02-18T21:43:41.839Z,6.01
2018-02-18T21:46:09.401Z,5.98
2018-02-18T21:48:37.071Z,5.99
2018-02-18T21:51:04.682Z,6.05
2018-02-18T21:53:32.254Z,6.03
2018-02-18T21:55:59.938Z,6.09
2018-02-18T21:58:27.575Z,6.08
2018-02-18T22:00:55.138Z,6.06
2018-02-18T22:03:22.886Z,6.00
2018-02-18T22:05:50.450Z,6.01
2018-02-18T22:08:17.996Z,6.05
2018-02-18T22:10:45.584Z,5.99
2018-02-18T22:13:13.156Z,5.98
2018-02-18T22:15:40.769Z,5.95
2018-02-18T22:18:08.590Z,5.91
2018-02-18T22:20:36.312Z,5.92
2018-02-18T22:23:03.882Z,5.91
2018-02-18T22:25:31.454Z,5.90
2018-02-18T22:27:59.037Z,5.84
2018-02-18T22:30:26.614Z,5.81
2018-02-18T22:32:54.238Z,5.86
2018-02-18T22:35:22.019Z,5.91
2018-02-18T22:37:49.574Z,5.93
2018-02-18T22:40:17.162Z,5.86
2018-02-18T22:42:44.779Z,5.86
2018-02-18T22:45:12.588Z,5.86
2018-02-18T22:47:40.406Z,5.84
2018-02-18T22:50:08.115Z,5.86
2018-02-18T22:52:35.820Z,5.89
2018-02-18T22:55:03.397Z,5.88
2018-02-18T22:57:30.970Z,5.99
2018-02-18T22:59:58.669Z,5.98
2018-02-18T23:02:26.239Z,5.93
2018-02-18T23:04:53.834Z,5.89
2018-02-18T23:07:21.651Z,5.85
2018-02-18T23:09:49.368Z,5.81
2018-02-18T23:12:17.005Z,5.78
2018-02-18T23:14:44.582Z,5.80
2018-02-18T23:17:12.142Z,5.82
2018-02-18T23:19:39.940Z,5.84
2018-02-18T23:22:07.615Z,5.79
2018-02-18T23:24:35.181Z,5.76
2018-02-18T23:27:02.787Z,5.83
2018-02-18T23:29:30.614Z,5.85
2018-02-18T23:31:58.175Z,5.80
2018-02-18T23:34:25.949Z,5.71
2018-02-18T23:36:53.765Z,5.70
2018-02-18T23:39:21.321Z,5.75
2018-02-18T23:41:48.897Z,5.75
2018-02-18T23:44:16.457Z,5.82
2018-02-18T23:46:44.073Z,5.81
2018-02-18T23:49:11.638Z,5.79
2018-02-18T23:51:39.211Z,5.77
2018-02-18T23:54:06.817Z,5.69
2018-02-18T23:56:34.610Z,5.59
2018-02-18T23:59:02.446Z,5.59
